Sumisemaru No.5 — JE3162 — position and weather

sailwx.info

Track history (hours):
 
Tides and Currents Weather Stations Pressure Air Temp Water Temp Dewpoint Dewpoint Depression Visibility Wind Speed Wind Dir Waves Ship Positions

Sumisemaru No.5

Last reported at 2017-May-10 12:06 UTC. Time now 2017-May-24 04:17 UTC.
Position N 34°54' E 139°46'.
Warning: this ship's position is 13 days out of date.

Length 96 m; draft 5.1 m.

Type: Cargo ship. MMSI: 431700423.

Date/timePositionNaut miles runAvg speedWind from/ knotsBaromVisibWave heightAir tempDewpointWater temp
2017-May-10 12:06N 34°54' E 139°46'312.9
2017-May-10 11:51N 34°57' E 139°44'412.3
2017-May-10 11:30N 35°01' E 139°42'612.8
2017-May-10 11:00N 35°07' E 139°44'713.0
2017-May-10 10:30N 35°13' E 139°46'612.3
2017-May-10 10:00N 35°19' E 139°43'612.5
2017-May-10 09:30N 35°25' E 139°44'713.2
2017-May-10 09:00N 35°29' E 139°50'611.5
2017-May-10 08:30N 35°35' E 139°48'4 7.3
2017-May-10 08:00N 35°38' E 139°46'0 0.1
2017-May-10 07:27N 35°38' E 139°45'0 0.0
2017-May-10 07:00N 35°38' E 139°45'0 0.0
2017-May-10 06:30N 35°38' E 139°45'0 0.0
2017-May-10 06:00N 35°38' E 139°45'0 0.1
2017-May-10 05:30N 35°38' E 139°46'0 0.1
2017-May-10 05:00N 35°38' E 139°45'0 0.0
2017-May-10 04:30N 35°38' E 139°45'0 0.0
2017-May-10 04:00N 35°38' E 139°45'0 0.0
2017-May-10 03:29N 35°38' E 139°45'0 0.0
2017-May-10 02:59N 35°38' E 139°45'0 0.0
2017-May-10 02:29N 35°38' E 139°45'0 0.0
2017-May-10 01:59N 35°38' E 139°45'0 0.0
2017-May-10 01:29N 35°38' E 139°45'0 0.0
2017-May-10 00:58N 35°38' E 139°45'0 0.0
2017-May-10 00:28N 35°38' E 139°45'0 0.0
2017-May-09 23:59N 35°38' E 139°45'0 0.0
2017-May-09 23:25N 35°38' E 139°45'0 0.2
2017-May-09 23:00N 35°38' E 139°46'4 8.2
2017-May-09 22:30N 35°35' E 139°48'510.6
2017-May-09 22:01N 35°30' E 139°52'611.3
2017-May-09 21:30N 35°26' E 139°47'611.3
2017-May-09 21:00N 35°27' E 139°40'1 2.6
2017-May-09 20:29N 35°29' E 139°40'0 0.0
2017-May-09 19:58N 35°29' E 139°40'0 0.0
2017-May-09 19:28N 35°29' E 139°40'0 0.0
2017-May-09 18:58N 35°29' E 139°40'0 0.0
2017-May-09 18:28N 35°29' E 139°40'0 0.0
2017-May-09 17:59N 35°29' E 139°40'0 0.0
2017-May-09 17:28N 35°29' E 139°40'0 0.0
2017-May-09 16:58N 35°29' E 139°40'0 0.0
2017-May-09 16:28N 35°29' E 139°40'0 0.0
2017-May-09 15:59N 35°29' E 139°40'0 0.0
2017-May-09 15:28N 35°29' E 139°40'0 0.0
2017-May-09 14:58N 35°29' E 139°40'0 0.0
2017-May-09 13:58N 35°29' E 139°40'0 0.0
2017-May-09 13:28N 35°29' E 139°40'0 0.0
2017-May-09 12:58N 35°29' E 139°40'0 0.0
2017-May-09 12:28N 35°29' E 139°40'0 0.0
2017-May-09 11:58N 35°29' E 139°40'0 0.0
2017-May-09 11:28N 35°29' E 139°40'0 0.0
2017-May-09 10:58N 35°29' E 139°40'0 0.0
2017-May-09 10:28N 35°29' E 139°40'0 0.0
2017-May-09 09:58N 35°29' E 139°40'0 0.0
2017-May-09 09:28N 35°29' E 139°40'0 0.0
2017-May-09 08:58N 35°29' E 139°40'0 0.0
2017-May-09 08:28N 35°29' E 139°40'0 0.0
2017-May-09 07:58N 35°29' E 139°40'0 0.0
2017-May-09 07:28N 35°29' E 139°40'0 0.0
2017-May-09 06:58N 35°29' E 139°40'0 0.0
2017-May-09 06:28N 35°29' E 139°40'0 0.0
2017-May-09 05:58N 35°29' E 139°40'0 0.0
2017-May-09 05:28N 35°29' E 139°40'0 0.0
2017-May-09 04:58N 35°29' E 139°40'0 0.0
2017-May-09 04:28N 35°29' E 139°40'0 0.0
2017-May-09 03:58N 35°29' E 139°40'1 2.5
2017-May-09 03:30N 35°28' E 139°40'3 5.6
2017-May-09 02:58N 35°25' E 139°42'0 0.0
2017-May-09 02:28N 35°25' E 139°42'0 0.1
2017-May-09 01:58N 35°25' E 139°42'0 0.0
2017-May-09 01:28N 35°25' E 139°42'0 0.0
2017-May-09 00:58N 35°25' E 139°42'0 0.0
2017-May-09 00:28N 35°25' E 139°42'0 0.0
2017-May-08 23:58N 35°25' E 139°42'0 0.1
2017-May-08 23:28N 35°25' E 139°42'0 0.1
2017-May-08 22:58N 35°25' E 139°42'0 0.1
2017-May-08 22:29N 35°25' E 139°42'0 0.0
2017-May-08 21:59N 35°25' E 139°42'0 0.0
2017-May-08 21:29N 35°25' E 139°42'0 0.0
2017-May-08 20:59N 35°25' E 139°42'0 0.0
2017-May-08 20:29N 35°25' E 139°42'0 0.0
2017-May-08 19:59N 35°25' E 139°42'0 0.0
2017-May-08 19:29N 35°25' E 139°42'0 0.1
2017-May-08 18:59N 35°25' E 139°42'0 0.0
2017-May-08 18:29N 35°25' E 139°42'0 0.1
2017-May-08 17:59N 35°25' E 139°42'0 0.0
2017-May-08 17:29N 35°25' E 139°42'0 0.1
2017-May-08 16:59N 35°25' E 139°42'0 0.0
2017-May-08 16:29N 35°25' E 139°42'0 0.0
2017-May-08 15:59N 35°25' E 139°42'0 0.1
2017-May-08 15:29N 35°25' E 139°42'0 0.1
2017-May-08 14:59N 35°25' E 139°42'0 0.0
2017-May-08 14:29N 35°25' E 139°42'0 0.1
2017-May-08 13:29N 35°25' E 139°42'0 0.0
2017-May-08 12:59N 35°25' E 139°42'0 0.0
2017-May-08 12:29N 35°25' E 139°42'0 0.0
2017-May-08 12:01N 35°25' E 139°42'0 0.1
2017-May-08 11:31N 35°25' E 139°42'0 0.1
2017-May-08 11:00N 35°25' E 139°42'0 0.0
2017-May-08 10:30N 35°25' E 139°42'0 0.1
2017-May-08 09:58N 35°25' E 139°42'0 0.0
2017-May-08 09:28N 35°25' E 139°42'0 0.0
2017-May-08 08:55N 35°25' E 139°42'0 0.0
2017-May-08 08:28N 35°25' E 139°42'0 0.1
2017-May-08 07:58N 35°25' E 139°42'0 0.0
2017-May-08 07:28N 35°25' E 139°42'0 0.0
2017-May-08 06:58N 35°25' E 139°42'0 0.1
2017-May-08 06:28N 35°25' E 139°42'0 0.0
2017-May-08 05:58N 35°25' E 139°42'0 0.0
2017-May-08 05:28N 35°25' E 139°42'0 0.0
2017-May-08 04:58N 35°25' E 139°42'0 0.0
2017-May-08 04:28N 35°25' E 139°42'0 0.1
2017-May-08 03:58N 35°25' E 139°42'0 0.0
2017-May-08 03:28N 35°25' E 139°42'0 0.0
2017-May-08 02:58N 35°25' E 139°42'0 0.0
2017-May-08 02:28N 35°25' E 139°42'0 0.0
2017-May-08 01:58N 35°25' E 139°42'0 0.1
2017-May-08 01:28N 35°25' E 139°42'0 0.0
2017-May-08 00:58N 35°25' E 139°42'0 0.1
2017-May-08 00:29N 35°25' E 139°42'0 0.1
2017-May-07 23:59N 35°25' E 139°42'0 0.0
2017-May-07 23:29N 35°25' E 139°42'0 0.1
2017-May-07 22:59N 35°25' E 139°42'0 0.0
2017-May-07 22:29N 35°25' E 139°42'0 0.0
2017-May-07 21:59N 35°25' E 139°42'0 0.0
2017-May-07 21:29N 35°25' E 139°42'0 0.0
2017-May-07 20:59N 35°25' E 139°42'0 0.0
2017-May-07 20:29N 35°25' E 139°42'0 0.0
2017-May-07 19:59N 35°25' E 139°42'0 0.0
2017-May-07 19:29N 35°25' E 139°42'0 0.1
2017-May-07 18:59N 35°25' E 139°42'0 0.0
2017-May-07 18:29N 35°25' E 139°42'0 0.1
2017-May-07 17:59N 35°25' E 139°42'0 0.0
2017-May-07 17:29N 35°25' E 139°42'0 0.0
2017-May-07 16:59N 35°25' E 139°42'0 0.0
2017-May-07 16:29N 35°25' E 139°42'0 0.0
2017-May-07 15:59N 35°25' E 139°42'0 0.0
2017-May-07 15:29N 35°25' E 139°42'0 0.0
2017-May-07 14:59N 35°25' E 139°42'0 0.0
2017-May-07 14:29N 35°25' E 139°42'0 0.0
2017-May-07 13:29N 35°25' E 139°42'0 0.0
2017-May-07 12:59N 35°25' E 139°42'0 0.1
2017-May-07 12:29N 35°25' E 139°42'0 0.0
2017-May-07 11:59N 35°25' E 139°42'0 0.1
2017-May-07 11:29N 35°25' E 139°42'0 0.1
2017-May-07 10:59N 35°25' E 139°42'0 0.0
2017-May-07 10:29N 35°25' E 139°42'0 0.0
2017-May-07 09:59N 35°25' E 139°42'0 0.0
2017-May-07 09:29N 35°25' E 139°42'0 0.0
2017-May-07 08:59N 35°25' E 139°42'0 0.0
2017-May-07 08:29N 35°25' E 139°42'0 0.1
2017-May-07 07:59N 35°25' E 139°42'0 0.1
2017-May-07 07:29N 35°25' E 139°42'0 0.1
2017-May-07 06:56N 35°25' E 139°42'0 0.1
2017-May-07 06:29N 35°25' E 139°42'0 0.0
2017-May-07 05:59N 35°25' E 139°42'0 0.0
2017-May-07 05:29N 35°25' E 139°42'0 0.1
2017-May-07 04:59N 35°25' E 139°42'0 0.0
2017-May-07 04:29N 35°25' E 139°42'0 0.0
2017-May-07 03:59N 35°25' E 139°42'0 0.0
2017-May-07 03:29N 35°25' E 139°42'0 0.0
2017-May-07 02:59N 35°25' E 139°42'0 0.0
2017-May-07 02:29N 35°25' E 139°42'0 0.0
2017-May-07 01:59N 35°25' E 139°42'0 0.0
2017-May-07 01:29N 35°25' E 139°42'0 0.1
2017-May-07 00:59N 35°25' E 139°42'0 0.0
2017-May-07 00:29N 35°25' E 139°42'0 0.0
2017-May-06 23:56N 35°25' E 139°42'0 0.0
2017-May-06 23:26N 35°25' E 139°42'0 0.0
2017-May-06 22:59N 35°25' E 139°42'0 0.0
2017-May-06 22:29N 35°25' E 139°42'0 0.1
2017-May-06 21:59N 35°25' E 139°42'0 0.0
2017-May-06 21:29N 35°25' E 139°42'0 0.0
2017-May-06 20:59N 35°25' E 139°42'0 0.0
2017-May-06 20:29N 35°25' E 139°42'0 0.0
2017-May-06 20:00N 35°25' E 139°42'0 0.0
2017-May-06 19:30N 35°25' E 139°42'0 0.0
2017-May-06 19:00N 35°25' E 139°42'1 1.9
2017-May-06 18:31N 35°24' E 139°42'612.1
2017-May-06 18:01N 35°18' E 139°44'612.1
2017-May-06 17:30N 35°13' E 139°47'612.2
2017-May-06 17:00N 35°07' E 139°46'611.1
2017-May-06 16:30N 35°02' E 139°42'611.7
2017-May-06 16:00N 34°58' E 139°36'  
Track history (hours):
 
Tides and Currents Weather Stations Pressure Air Temp Water Temp Dewpoint Dewpoint Depression Visibility Wind Speed Wind Dir Waves Ship Positions

Sumisemaru No.5

Last reported at 2017-May-10 12:06 UTC. Time now 2017-May-24 04:17 UTC.
Position N 34°54' E 139°46'.
Warning: this ship's position is 13 days out of date.

Length 96 m; draft 5.1 m.

Type: Cargo ship. MMSI: 431700423.

Date/timePositionNaut miles runAvg speedWind from/ knotsBaromVisibWave heightAir tempDewpointWater temp
2017-May-10 12:06N 34°54' E 139°46'312.9
2017-May-10 11:51N 34°57' E 139°44'412.3
2017-May-10 11:30N 35°01' E 139°42'612.8
2017-May-10 11:00N 35°07' E 139°44'713.0
2017-May-10 10:30N 35°13' E 139°46'612.3
2017-May-10 10:00N 35°19' E 139°43'612.5
2017-May-10 09:30N 35°25' E 139°44'713.2
2017-May-10 09:00N 35°29' E 139°50'611.5
2017-May-10 08:30N 35°35' E 139°48'4 7.3
2017-May-10 08:00N 35°38' E 139°46'0 0.1
2017-May-10 07:27N 35°38' E 139°45'0 0.0
2017-May-10 07:00N 35°38' E 139°45'0 0.0
2017-May-10 06:30N 35°38' E 139°45'0 0.0
2017-May-10 06:00N 35°38' E 139°45'0 0.1
2017-May-10 05:30N 35°38' E 139°46'0 0.1
2017-May-10 05:00N 35°38' E 139°45'0 0.0
2017-May-10 04:30N 35°38' E 139°45'0 0.0
2017-May-10 04:00N 35°38' E 139°45'0 0.0
2017-May-10 03:29N 35°38' E 139°45'0 0.0
2017-May-10 02:59N 35°38' E 139°45'0 0.0
2017-May-10 02:29N 35°38' E 139°45'0 0.0
2017-May-10 01:59N 35°38' E 139°45'0 0.0
2017-May-10 01:29N 35°38' E 139°45'0 0.0
2017-May-10 00:58N 35°38' E 139°45'0 0.0
2017-May-10 00:28N 35°38' E 139°45'0 0.0
2017-May-09 23:59N 35°38' E 139°45'0 0.0
2017-May-09 23:25N 35°38' E 139°45'0 0.2
2017-May-09 23:00N 35°38' E 139°46'4 8.2
2017-May-09 22:30N 35°35' E 139°48'510.6
2017-May-09 22:01N 35°30' E 139°52'611.3
2017-May-09 21:30N 35°26' E 139°47'611.3
2017-May-09 21:00N 35°27' E 139°40'1 2.6
2017-May-09 20:29N 35°29' E 139°40'0 0.0
2017-May-09 19:58N 35°29' E 139°40'0 0.0
2017-May-09 19:28N 35°29' E 139°40'0 0.0
2017-May-09 18:58N 35°29' E 139°40'0 0.0
2017-May-09 18:28N 35°29' E 139°40'0 0.0
2017-May-09 17:59N 35°29' E 139°40'0 0.0
2017-May-09 17:28N 35°29' E 139°40'0 0.0
2017-May-09 16:58N 35°29' E 139°40'0 0.0
2017-May-09 16:28N 35°29' E 139°40'0 0.0
2017-May-09 15:59N 35°29' E 139°40'0 0.0
2017-May-09 15:28N 35°29' E 139°40'0 0.0
2017-May-09 14:58N 35°29' E 139°40'0 0.0
2017-May-09 13:58N 35°29' E 139°40'0 0.0
2017-May-09 13:28N 35°29' E 139°40'0 0.0
2017-May-09 12:58N 35°29' E 139°40'0 0.0
2017-May-09 12:28N 35°29' E 139°40'0 0.0
2017-May-09 11:58N 35°29' E 139°40'0 0.0
2017-May-09 11:28N 35°29' E 139°40'0 0.0
2017-May-09 10:58N 35°29' E 139°40'0 0.0
2017-May-09 10:28N 35°29' E 139°40'0 0.0
2017-May-09 09:58N 35°29' E 139°40'0 0.0
2017-May-09 09:28N 35°29' E 139°40'0 0.0
2017-May-09 08:58N 35°29' E 139°40'0 0.0
2017-May-09 08:28N 35°29' E 139°40'0 0.0
2017-May-09 07:58N 35°29' E 139°40'0 0.0
2017-May-09 07:28N 35°29' E 139°40'0 0.0
2017-May-09 06:58N 35°29' E 139°40'0 0.0
2017-May-09 06:28N 35°29' E 139°40'0 0.0
2017-May-09 05:58N 35°29' E 139°40'0 0.0
2017-May-09 05:28N 35°29' E 139°40'0 0.0
2017-May-09 04:58N 35°29' E 139°40'0 0.0
2017-May-09 04:28N 35°29' E 139°40'0 0.0
2017-May-09 03:58N 35°29' E 139°40'1 2.5
2017-May-09 03:30N 35°28' E 139°40'3 5.6
2017-May-09 02:58N 35°25' E 139°42'0 0.0
2017-May-09 02:28N 35°25' E 139°42'0 0.1
2017-May-09 01:58N 35°25' E 139°42'0 0.0
2017-May-09 01:28N 35°25' E 139°42'0 0.0
2017-May-09 00:58N 35°25' E 139°42'0 0.0
2017-May-09 00:28N 35°25' E 139°42'0 0.0
2017-May-08 23:58N 35°25' E 139°42'0 0.1
2017-May-08 23:28N 35°25' E 139°42'0 0.1
2017-May-08 22:58N 35°25' E 139°42'0 0.1
2017-May-08 22:29N 35°25' E 139°42'0 0.0
2017-May-08 21:59N 35°25' E 139°42'0 0.0
2017-May-08 21:29N 35°25' E 139°42'0 0.0
2017-May-08 20:59N 35°25' E 139°42'0 0.0
2017-May-08 20:29N 35°25' E 139°42'0 0.0
2017-May-08 19:59N 35°25' E 139°42'0 0.0
2017-May-08 19:29N 35°25' E 139°42'0 0.1
2017-May-08 18:59N 35°25' E 139°42'0 0.0
2017-May-08 18:29N 35°25' E 139°42'0 0.1
2017-May-08 17:59N 35°25' E 139°42'0 0.0
2017-May-08 17:29N 35°25' E 139°42'0 0.1
2017-May-08 16:59N 35°25' E 139°42'0 0.0
2017-May-08 16:29N 35°25' E 139°42'0 0.0
2017-May-08 15:59N 35°25' E 139°42'0 0.1
2017-May-08 15:29N 35°25' E 139°42'0 0.1
2017-May-08 14:59N 35°25' E 139°42'0 0.0
2017-May-08 14:29N 35°25' E 139°42'0 0.1
2017-May-08 13:29N 35°25' E 139°42'0 0.0
2017-May-08 12:59N 35°25' E 139°42'0 0.0
2017-May-08 12:29N 35°25' E 139°42'0 0.0
2017-May-08 12:01N 35°25' E 139°42'0 0.1
2017-May-08 11:31N 35°25' E 139°42'0 0.1
2017-May-08 11:00N 35°25' E 139°42'0 0.0
2017-May-08 10:30N 35°25' E 139°42'0 0.1
2017-May-08 09:58N 35°25' E 139°42'0 0.0
2017-May-08 09:28N 35°25' E 139°42'0 0.0
2017-May-08 08:55N 35°25' E 139°42'0 0.0
2017-May-08 08:28N 35°25' E 139°42'0 0.1
2017-May-08 07:58N 35°25' E 139°42'0 0.0
2017-May-08 07:28N 35°25' E 139°42'0 0.0
2017-May-08 06:58N 35°25' E 139°42'0 0.1
2017-May-08 06:28N 35°25' E 139°42'0 0.0
2017-May-08 05:58N 35°25' E 139°42'0 0.0
2017-May-08 05:28N 35°25' E 139°42'0 0.0
2017-May-08 04:58N 35°25' E 139°42'0 0.0
2017-May-08 04:28N 35°25' E 139°42'0 0.1
2017-May-08 03:58N 35°25' E 139°42'0 0.0
2017-May-08 03:28N 35°25' E 139°42'0 0.0
2017-May-08 02:58N 35°25' E 139°42'0 0.0
2017-May-08 02:28N 35°25' E 139°42'0 0.0
2017-May-08 01:58N 35°25' E 139°42'0 0.1
2017-May-08 01:28N 35°25' E 139°42'0 0.0
2017-May-08 00:58N 35°25' E 139°42'0 0.1
2017-May-08 00:29N 35°25' E 139°42'0 0.1
2017-May-07 23:59N 35°25' E 139°42'0 0.0
2017-May-07 23:29N 35°25' E 139°42'0 0.1
2017-May-07 22:59N 35°25' E 139°42'0 0.0
2017-May-07 22:29N 35°25' E 139°42'0 0.0
2017-May-07 21:59N 35°25' E 139°42'0 0.0
2017-May-07 21:29N 35°25' E 139°42'0 0.0
2017-May-07 20:59N 35°25' E 139°42'0 0.0
2017-May-07 20:29N 35°25' E 139°42'0 0.0
2017-May-07 19:59N 35°25' E 139°42'0 0.0
2017-May-07 19:29N 35°25' E 139°42'0 0.1
2017-May-07 18:59N 35°25' E 139°42'0 0.0
2017-May-07 18:29N 35°25' E 139°42'0 0.1
2017-May-07 17:59N 35°25' E 139°42'0 0.0
2017-May-07 17:29N 35°25' E 139°42'0 0.0
2017-May-07 16:59N 35°25' E 139°42'0 0.0
2017-May-07 16:29N 35°25' E 139°42'0 0.0
2017-May-07 15:59N 35°25' E 139°42'0 0.0
2017-May-07 15:29N 35°25' E 139°42'0 0.0
2017-May-07 14:59N 35°25' E 139°42'0 0.0
2017-May-07 14:29N 35°25' E 139°42'0 0.0
2017-May-07 13:29N 35°25' E 139°42'0 0.0
2017-May-07 12:59N 35°25' E 139°42'0 0.1
2017-May-07 12:29N 35°25' E 139°42'0 0.0
2017-May-07 11:59N 35°25' E 139°42'0 0.1
2017-May-07 11:29N 35°25' E 139°42'0 0.1
2017-May-07 10:59N 35°25' E 139°42'0 0.0
2017-May-07 10:29N 35°25' E 139°42'0 0.0
2017-May-07 09:59N 35°25' E 139°42'0 0.0
2017-May-07 09:29N 35°25' E 139°42'0 0.0
2017-May-07 08:59N 35°25' E 139°42'0 0.0
2017-May-07 08:29N 35°25' E 139°42'0 0.1
2017-May-07 07:59N 35°25' E 139°42'0 0.1
2017-May-07 07:29N 35°25' E 139°42'0 0.1
2017-May-07 06:56N 35°25' E 139°42'0 0.1
2017-May-07 06:29N 35°25' E 139°42'0 0.0
2017-May-07 05:59N 35°25' E 139°42'0 0.0
2017-May-07 05:29N 35°25' E 139°42'0 0.1
2017-May-07 04:59N 35°25' E 139°42'0 0.0
2017-May-07 04:29N 35°25' E 139°42'0 0.0
2017-May-07 03:59N 35°25' E 139°42'0 0.0
2017-May-07 03:29N 35°25' E 139°42'0 0.0
2017-May-07 02:59N 35°25' E 139°42'0 0.0
2017-May-07 02:29N 35°25' E 139°42'0 0.0
2017-May-07 01:59N 35°25' E 139°42'0 0.0
2017-May-07 01:29N 35°25' E 139°42'0 0.1
2017-May-07 00:59N 35°25' E 139°42'0 0.0
2017-May-07 00:29N 35°25' E 139°42'0 0.0
2017-May-06 23:56N 35°25' E 139°42'0 0.0
2017-May-06 23:26N 35°25' E 139°42'0 0.0
2017-May-06 22:59N 35°25' E 139°42'0 0.0
2017-May-06 22:29N 35°25' E 139°42'0 0.1
2017-May-06 21:59N 35°25' E 139°42'0 0.0
2017-May-06 21:29N 35°25' E 139°42'0 0.0
2017-May-06 20:59N 35°25' E 139°42'0 0.0
2017-May-06 20:29N 35°25' E 139°42'0 0.0
2017-May-06 20:00N 35°25' E 139°42'0 0.0
2017-May-06 19:30N 35°25' E 139°42'0 0.0
2017-May-06 19:00N 35°25' E 139°42'1 1.9
2017-May-06 18:31N 35°24' E 139°42'612.1
2017-May-06 18:01N 35°18' E 139°44'612.1
2017-May-06 17:30N 35°13' E 139°47'612.2
2017-May-06 17:00N 35°07' E 139°46'611.1
2017-May-06 16:30N 35°02' E 139°42'611.7
2017-May-06 16:00N 34°58' E 139°36'  

Dump ship's entire track history